Time;durP1;ratioP1;P1;durP2;ratioP2;P2;SDS_P1;SDS_P2;PMS_P1;PMS_P2;Temp;Humidity;BMP_temperature;BMP_pressure;BME280_temperature;BME280_humidity;BME280_pressure;Samples;Min_cycle;Max_cycle;Signal;HPM_P1;HPM_P2
2023/10/04 00:00:20;;;;;;;8.10;3.22;;;12.30;99.90;;;;;;5048381;28;20037;-70
2023/10/04 00:02:50;;;;;;;9.63;3.63;;;12.40;99.90;;;;;;5047667;28;20033;-70
2023/10/04 00:05:19;;;;;;;9.57;3.60;;;12.40;99.90;;;;;;5048343;28;20040;-70
2023/10/04 00:07:49;;;;;;;6.40;3.40;;;12.50;99.90;;;;;;5047322;28;20045;-70
2023/10/04 00:10:16;;;;;;;9.27;2.97;;;12.40;99.90;;;;;;5048338;28;20040;-70
2023/10/04 00:12:43;;;;;;;7.68;3.45;;;12.30;99.90;;;;;;5047812;28;20029;-69
2023/10/04 00:15:11;;;;;;;8.75;3.25;;;12.20;99.90;;;;;;5045252;28;20377;-70
2023/10/04 00:17:40;;;;;;;8.43;3.13;;;12.20;99.90;;;;;;5044946;28;20430;-70
2023/10/04 00:20:08;;;;;;;12.27;3.40;;;12.20;99.90;;;;;;5047818;28;20029;-70
2023/10/04 00:22:36;;;;;;;8.15;3.05;;;12.30;99.90;;;;;;5048021;28;20683;-70
2023/10/04 00:25:03;;;;;;;7.25;2.95;;;12.40;99.90;;;;;;5046686;28;20150;-70
2023/10/04 00:27:30;;;;;;;13.57;3.55;;;12.30;99.90;;;;;;5049201;28;20418;-69
2023/10/04 00:29:56;;;;;;;13.32;3.28;;;12.20;99.90;;;;;;5047309;28;20032;-70
2023/10/04 00:32:22;;;;;;;7.68;2.83;;;12.20;99.90;;;;;;5048009;28;20148;-70
2023/10/04 00:34:47;;;;;;;6.05;3.03;;;12.00;99.90;;;;;;5047258;28;20622;-70
2023/10/04 00:37:15;;;;;;;7.38;3.08;;;11.90;99.90;;;;;;5047801;28;20075;-70
2023/10/04 00:39:41;;;;;;;5.90;3.00;;;11.80;99.90;;;;;;5047961;28;20094;-69
2023/10/04 00:42:06;;;;;;;14.73;3.42;;;12.00;99.90;;;;;;5047727;28;20400;-70
2023/10/04 00:44:35;;;;;;;7.43;3.33;;;11.80;99.90;;;;;;5047701;28;20044;-70
2023/10/04 00:47:05;;;;;;;8.75;2.90;;;11.70;99.90;;;;;;5047094;28;20035;-70
2023/10/04 00:49:33;;;;;;;6.70;2.70;;;11.70;99.90;;;;;;5047869;28;20037;-70
2023/10/04 00:52:05;;;;;;;5.43;2.75;;;11.70;99.90;;;;;;5047261;28;20029;-70
2023/10/04 00:54:31;;;;;;;6.80;3.05;;;11.80;99.90;;;;;;5047816;28;20111;-70
2023/10/04 00:56:58;;;;;;;6.28;2.92;;;11.80;99.90;;;;;;5045503;28;20123;-70
2023/10/04 00:59:23;;;;;;;7.55;3.20;;;11.80;99.90;;;;;;5047742;28;20036;-69
2023/10/04 01:01:49;;;;;;;6.15;3.03;;;11.90;99.90;;;;;;5046908;28;20446;-70
2023/10/04 01:04:15;;;;;;;7.78;3.42;;;11.80;99.90;;;;;;5047754;28;20029;-70
2023/10/04 01:06:42;;;;;;;7.00;3.05;;;11.90;99.90;;;;;;5047404;28;20029;-70
2023/10/04 01:09:08;;;;;;;4.85;2.78;;;11.90;99.90;;;;;;5047249;28;20174;-70
2023/10/04 01:11:35;;;;;;;5.35;2.70;;;11.90;99.90;;;;;;5047562;28;20108;-70
2023/10/04 01:14:18;;;;;;;5.97;2.58;;;11.80;99.90;;;;;;5046771;28;20087;-70
2023/10/04 01:16:44;;;;;;;7.40;3.10;;;11.70;99.90;;;;;;5047282;28;20035;-70
2023/10/04 01:19:14;;;;;;;8.82;3.22;;;11.60;99.90;;;;;;5046971;28;20033;-70
2023/10/04 01:21:40;;;;;;;6.70;2.97;;;11.50;99.90;;;;;;5047488;28;20025;-70
2023/10/04 01:24:09;;;;;;;6.47;2.88;;;11.50;99.90;;;;;;5046607;28;20106;-70
2023/10/04 01:26:39;;;;;;;6.85;3.17;;;11.50;99.90;;;;;;5047797;28;20033;-70
2023/10/04 01:29:08;;;;;;;9.57;2.90;;;11.50;99.90;;;;;;5046821;28;20528;-70
2023/10/04 01:31:35;;;;;;;5.67;2.57;;;11.40;99.90;;;;;;5047407;28;20174;-70
2023/10/04 01:34:03;;;;;;;6.05;2.70;;;11.30;99.90;;;;;;5046252;28;20530;-70
2023/10/04 01:36:31;;;;;;;369.63;11.25;;;11.30;99.90;;;;;;5049138;28;20382;-70
2023/10/04 01:38:57;;;;;;;5.63;2.75;;;11.20;99.90;;;;;;5050077;28;20048;-70
2023/10/04 01:41:24;;;;;;;6.88;2.88;;;11.10;99.90;;;;;;5050847;28;20118;-69
2023/10/04 01:43:53;;;;;;;12.82;3.65;;;10.90;99.90;;;;;;5049823;28;20470;-70
2023/10/04 01:46:19;;;;;;;5.90;3.38;;;10.90;99.90;;;;;;5050840;28;20028;-70
2023/10/04 01:48:45;;;;;;;12.25;3.90;;;10.90;99.90;;;;;;5050713;28;20044;-70
2023/10/04 01:51:12;;;;;;;5.28;3.22;;;10.90;99.90;;;;;;5050133;28;20766;-69
2023/10/04 01:53:38;;;;;;;6.97;3.40;;;10.80;99.90;;;;;;5050246;28;20536;-70
2023/10/04 01:56:06;;;;;;;11.82;3.40;;;10.80;99.90;;;;;;5049644;28;20104;-70
2023/10/04 01:58:31;;;;;;;10.05;3.60;;;10.80;99.90;;;;;;5050670;28;20100;-70
2023/10/04 02:00:57;;;;;;;10.75;2.90;;;10.90;99.90;;;;;;5049846;28;20048;-70
2023/10/04 02:03:23;;;;;;;6.88;3.40;;;11.00;99.90;;;;;;5048937;28;20029;-70
2023/10/04 02:05:50;;;;;;;7.15;3.40;;;11.00;99.90;;;;;;5048507;28;20032;-70
2023/10/04 02:08:17;;;;;;;5.65;2.92;;;11.00;99.90;;;;;;5048327;28;20037;-70
2023/10/04 02:10:45;;;;;;;4.80;2.70;;;10.90;99.90;;;;;;5050535;28;20040;-71
2023/10/04 02:13:17;;;;;;;5.35;2.95;;;10.80;99.90;;;;;;5048413;28;20036;-70
2023/10/04 02:15:48;;;;;;;6.38;2.80;;;10.80;99.90;;;;;;5050401;28;20044;-70
2023/10/04 02:18:15;;;;;;;8.40;3.05;;;10.80;99.90;;;;;;5050011;28;20050;-70
2023/10/04 02:20:46;;;;;;;7.72;3.00;;;10.80;99.90;;;;;;5049940;28;20517;-70
2023/10/04 02:23:13;;;;;;;9.68;3.38;;;10.90;99.90;;;;;;5049039;28;20171;-70
2023/10/04 02:25:39;;;;;;;8.02;3.60;;;11.10;99.90;;;;;;5033352;28;20028;-70
2023/10/04 02:28:11;;;;;;;72.88;6.05;;;11.10;99.90;;;;;;5029727;28;20436;-70
2023/10/04 02:30:40;;;;;;;4.60;2.53;;;11.10;99.90;;;;;;5030236;28;20043;-70
2023/10/04 02:33:14;;;;;;;10.45;2.40;;;10.80;99.90;;;;;;5029216;28;20683;-70
2023/10/04 02:35:44;;;;;;;6.68;1.98;;;10.60;99.90;;;;;;5030433;28;20044;-71
2023/10/04 02:38:19;;;;;;;7.65;2.50;;;10.50;99.90;;;;;;5027219;28;20103;-70
2023/10/04 02:40:46;;;;;;;6.57;2.60;;;10.40;99.90;;;;;;5029951;28;20045;-70
2023/10/04 02:43:15;;;;;;;6.25;2.70;;;10.40;99.90;;;;;;5029142;28;20184;-70
2023/10/04 02:45:41;;;;;;;7.05;2.78;;;10.40;99.90;;;;;;5029890;28;20026;-70
2023/10/04 02:48:09;;;;;;;5.55;2.50;;;10.30;99.90;;;;;;5028327;28;20113;-70
2023/10/04 02:50:37;;;;;;;6.05;2.75;;;10.20;99.90;;;;;;5029687;28;20056;-70
2023/10/04 02:53:03;;;;;;;9.65;3.60;;;10.20;99.90;;;;;;5031694;28;20033;-70
2023/10/04 02:55:31;;;;;;;9.27;2.95;;;10.20;99.90;;;;;;5049302;28;20032;-70
2023/10/04 02:58:00;;;;;;;7.68;2.78;;;10.10;99.90;;;;;;5031170;28;20032;-70
2023/10/04 03:00:26;;;;;;;6.90;3.20;;;10.10;99.90;;;;;;5049360;28;20032;-70
2023/10/04 03:02:53;;;;;;;8.68;3.22;;;10.20;99.90;;;;;;5048768;28;20029;-70
2023/10/04 03:05:20;;;;;;;7.78;3.80;;;10.10;99.90;;;;;;5049215;28;20072;-72
2023/10/04 03:07:47;;;;;;;6.47;3.10;;;10.20;99.90;;;;;;5049239;28;20033;-72
2023/10/04 03:10:23;;;;;;;6.18;2.78;;;10.20;99.90;;;;;;5048318;28;20033;-72
2023/10/04 03:13:00;;;;;;;9.43;3.25;;;10.20;99.90;;;;;;5049434;28;20025;-72
2023/10/04 03:15:28;;;;;;;6.82;3.15;;;10.20;99.90;;;;;;5049295;28;20025;-72
2023/10/04 03:17:55;;;;;;;5.88;3.00;;;10.20;99.90;;;;;;5048358;28;20370;-72
2023/10/04 03:20:29;;;;;;;5.13;2.60;;;10.20;99.90;;;;;;5049215;28;20045;-72
2023/10/04 03:22:55;;;;;;;4.38;2.50;;;10.10;99.90;;;;;;5048361;28;20491;-72
2023/10/04 03:25:26;;;;;;;5.43;2.28;;;10.10;99.90;;;;;;5049472;28;20029;-72
2023/10/04 03:27:53;;;;;;;3.85;2.03;;;10.00;99.90;;;;;;5048917;28;20028;-72
2023/10/04 03:30:20;;;;;;;3.95;2.25;;;9.80;99.90;;;;;;5048843;28;20033;-72
2023/10/04 03:32:56;;;;;;;5.00;2.28;;;9.80;99.90;;;;;;5048965;28;20615;-72
2023/10/04 03:35:26;;;;;;;4.13;2.22;;;9.80;99.90;;;;;;5049064;28;20037;-72
2023/10/04 03:37:58;;;;;;;4.55;2.20;;;9.80;99.90;;;;;;5048544;28;20064;-72
2023/10/04 03:40:24;;;;;;;3.17;2.03;;;9.80;99.90;;;;;;5048083;28;20519;-70
2023/10/04 03:42:50;;;;;;;3.58;2.00;;;9.80;99.90;;;;;;5048585;28;20040;-70
2023/10/04 03:45:20;;;;;;;5.40;1.77;;;9.80;99.90;;;;;;5047826;28;20033;-70
2023/10/04 03:47:50;;;;;;;3.85;2.13;;;9.70;99.90;;;;;;5048618;28;20024;-70
2023/10/04 03:50:20;;;;;;;6.10;2.10;;;9.80;99.90;;;;;;5047813;28;20033;-70
2023/10/04 03:52:47;;;;;;;5.90;2.10;;;9.80;99.90;;;;;;5048261;28;20489;-70
2023/10/04 03:55:13;;;;;;;4.93;2.53;;;9.80;99.90;;;;;;5047657;28;20025;-70
2023/10/04 03:57:42;;;;;;;3.97;2.30;;;9.80;99.90;;;;;;5047089;28;20386;-70
2023/10/04 04:00:16;;;;;;;19.33;2.10;;;9.80;99.90;;;;;;5046688;28;20041;-70
2023/10/04 04:02:43;;;;;;;3.35;1.90;;;9.70;99.90;;;;;;5048404;28;20031;-69
2023/10/04 04:05:14;;;;;;;2.70;1.60;;;9.40;99.90;;;;;;5047461;28;20090;-70
2023/10/04 04:07:41;;;;;;;4.60;2.50;;;9.40;99.90;;;;;;5046216;28;20166;-70
2023/10/04 04:10:08;;;;;;;7.47;2.38;;;9.50;99.90;;;;;;5047281;28;20122;-69
2023/10/04 04:12:34;;;;;;;6.00;2.60;;;9.50;99.90;;;;;;5048266;28;20025;-70
2023/10/04 04:15:01;;;;;;;6.80;2.80;;;9.60;99.90;;;;;;5044146;28;20374;-70
2023/10/04 04:17:29;;;;;;;3.72;2.20;;;9.60;99.90;;;;;;5048462;28;20029;-69
2023/10/04 04:19:54;;;;;;;4.85;2.00;;;9.60;99.90;;;;;;5047913;28;20489;-70
2023/10/04 04:22:23;;;;;;;5.25;1.77;;;9.50;99.90;;;;;;5047699;28;20033;-70
2023/10/04 04:24:52;;;;;;;7.82;2.03;;;9.50;99.90;;;;;;5047986;28;20033;-70
2023/10/04 04:27:22;;;;;;;4.57;2.20;;;9.50;99.90;;;;;;5047257;28;20358;-70
2023/10/04 04:29:52;;;;;;;4.97;2.83;;;9.50;99.90;;;;;;5048132;28;20029;-69
2023/10/04 04:32:26;;;;;;;;;;;9.60;99.90;;;;;;5047712;28;20271;-70
2023/10/04 04:34:55;;;;;;;4.70;2.50;;;9.60;99.90;;;;;;5046773;28;20379;-70
2023/10/04 04:37:23;;;;;;;4.05;2.13;;;9.50;99.90;;;;;;5047147;28;20056;-70
2023/10/04 04:39:50;;;;;;;5.57;2.80;;;9.40;99.90;;;;;;5047944;28;20041;-70
2023/10/04 04:42:30;;;;;;;5.20;2.63;;;9.50;99.90;;;;;;5047070;28;20017;-70
2023/10/04 04:44:56;;;;;;;3.90;2.15;;;9.60;99.90;;;;;;5047781;28;20025;-70
2023/10/04 04:47:22;;;;;;;7.32;2.72;;;9.60;99.90;;;;;;5047479;28;20025;-70
2023/10/04 04:49:48;;;;;;;3.55;2.30;;;9.60;99.90;;;;;;5047893;28;20033;-70
2023/10/04 04:52:14;;;;;;;5.22;2.40;;;9.50;99.90;;;;;;5047355;28;20025;-70
2023/10/04 04:54:40;;;;;;;4.25;2.17;;;9.50;99.90;;;;;;5047763;28;20059;-70
2023/10/04 04:57:07;;;;;;;7.30;2.30;;;9.50;99.90;;;;;;5046901;28;20060;-70
2023/10/04 04:59:33;;;;;;;5.15;2.10;;;9.30;99.90;;;;;;5047855;28;20047;-70
2023/10/04 05:02:00;;;;;;;7.43;2.03;;;9.30;99.90;;;;;;5047268;28;20032;-71
2023/10/04 05:04:27;;;;;;;208.13;6.35;;;9.30;99.90;;;;;;5047947;28;20032;-70
2023/10/04 05:06:53;;;;;;;2.50;1.42;;;9.20;99.90;;;;;;5047855;28;20115;-70
2023/10/04 05:09:18;;;;;;;2.10;1.33;;;9.20;99.90;;;;;;5047122;28;20100;-70
2023/10/04 05:11:45;;;;;;;3.08;1.52;;;9.10;99.90;;;;;;5050645;28;20021;-70
2023/10/04 05:14:11;;;;;;;2.60;1.40;;;8.90;99.90;;;;;;5050399;28;20455;-70
2023/10/04 05:16:37;;;;;;;5.13;1.90;;;8.90;99.90;;;;;;5051685;28;20029;-70
2023/10/04 05:19:10;;;;;;;4.15;1.75;;;8.90;99.90;;;;;;5049243;28;20087;-70
2023/10/04 05:21:36;;;;;;;3.17;1.60;;;8.80;99.90;;;;;;5051546;28;20065;-70
2023/10/04 05:24:03;;;;;;;3.13;1.75;;;8.90;99.90;;;;;;5050446;28;20104;-70
2023/10/04 05:26:29;;;;;;;3.97;1.73;;;8.80;99.90;;;;;;5051672;28;20021;-70
2023/10/04 05:28:55;;;;;;;3.85;1.40;;;8.80;99.90;;;;;;5051633;28;20036;-70
2023/10/04 05:31:22;;;;;;;6.53;1.40;;;8.80;99.90;;;;;;5050870;28;20021;-71
2023/10/04 05:33:47;;;;;;;2.10;1.33;;;8.70;99.90;;;;;;5050062;28;20029;-70
2023/10/04 05:36:13;;;;;;;4.05;1.50;;;8.70;99.90;;;;;;5050594;28;20428;-71
2023/10/04 05:38:39;;;;;;;4.00;1.88;;;8.60;99.90;;;;;;5051434;28;20087;-70
2023/10/04 05:41:04;;;;;;;3.83;2.13;;;8.70;99.90;;;;;;5050515;28;20041;-70
2023/10/04 05:43:31;;;;;;;3.72;1.80;;;8.80;99.90;;;;;;5051314;28;20350;-71
2023/10/04 05:45:57;;;;;;;3.03;1.58;;;8.90;99.90;;;;;;5050994;28;20783;-71
2023/10/04 05:48:23;;;;;;;3.08;1.60;;;8.90;99.90;;;;;;5050484;28;20146;-71
2023/10/04 05:50:54;;;;;;;4.47;1.85;;;8.90;99.90;;;;;;5050696;28;20481;-71
2023/10/04 05:53:21;;;;;;;7.40;2.63;;;8.90;99.90;;;;;;5048945;28;20021;-71
2023/10/04 05:55:48;;;;;;;7.25;3.20;;;9.00;99.90;;;;;;5051098;28;20029;-71
2023/10/04 05:58:15;;;;;;;7.55;3.60;;;9.20;99.90;;;;;;5050225;28;20021;-71
2023/10/04 06:00:40;;;;;;;9.00;4.03;;;9.40;99.90;;;;;;5050977;28;20067;-71
2023/10/04 06:03:11;;;;;;;8.73;3.22;;;9.60;99.90;;;;;;5050110;28;20492;-71
2023/10/04 06:05:38;;;;;;;6.30;3.35;;;9.60;99.90;;;;;;5051007;28;20025;-71
2023/10/04 06:08:15;;;;;;;7.63;3.00;;;9.60;99.90;;;;;;5050232;28;20033;-71
2023/10/04 06:10:42;;;;;;;5.57;2.97;;;9.60;99.90;;;;;;5050916;28;20043;-71
2023/10/04 06:13:11;;;;;;;5.70;2.67;;;9.60;99.90;;;;;;5050026;28;20033;-71
2023/10/04 06:15:42;;;;;;;4.95;2.70;;;9.60;99.90;;;;;;5048795;28;20029;-71
2023/10/04 06:18:09;;;;;;;7.25;3.25;;;9.60;99.90;;;;;;5049804;28;20025;-71
2023/10/04 06:20:36;;;;;;;6.07;2.50;;;9.60;99.90;;;;;;5047297;28;20374;-71
2023/10/04 06:23:05;;;;;;;9.15;4.07;;;9.60;99.90;;;;;;5049061;28;20029;-71
2023/10/04 06:25:33;;;;;;;11.60;3.55;;;9.60;99.90;;;;;;5050674;28;20029;-71
2023/10/04 06:28:01;;;;;;;8.02;3.05;;;9.70;99.90;;;;;;5049144;28;20033;-71
2023/10/04 06:30:31;;;;;;;7.78;3.53;;;9.90;99.90;;;;;;5049750;28;20064;-71
2023/10/04 06:32:59;;;;;;;9.13;3.53;;;9.90;99.90;;;;;;5048966;28;20111;-71
2023/10/04 06:35:26;;;;;;;6.07;2.95;;;9.90;99.90;;;;;;5049533;28;20132;-71
2023/10/04 06:37:59;;;;;;;10.02;4.07;;;9.80;99.90;;;;;;5050029;28;20081;-71
2023/10/04 06:40:27;;;;;;;8.77;3.50;;;9.90;99.90;;;;;;5049366;28;20045;-71
2023/10/04 06:42:55;;;;;;;9.38;4.15;;;10.00;99.90;;;;;;5050157;28;20074;-71
2023/10/04 06:45:24;;;;;;;9.82;3.63;;;10.10;99.90;;;;;;5049258;28;20043;-71
2023/10/04 06:47:53;;;;;;;10.60;4.53;;;10.30;99.90;;;;;;5048599;28;20116;-70
2023/10/04 06:50:21;;;;;;;7.00;3.50;;;10.40;99.90;;;;;;5047938;28;20036;-71
2023/10/04 06:52:51;;;;;;;10.10;3.70;;;10.60;99.90;;;;;;5048512;28;20029;-71
2023/10/04 06:55:18;;;;;;;7.93;3.73;;;10.60;99.90;;;;;;5048910;28;20033;-71
2023/10/04 06:57:45;;;;;;;10.07;4.25;;;10.70;99.90;;;;;;5049784;28;20305;-71
2023/10/04 07:00:14;;;;;;;11.50;4.32;;;10.80;99.90;;;;;;5048817;28;20037;-71
2023/10/04 07:02:45;;;;;;;10.23;4.20;;;10.90;99.90;;;;;;5049648;28;20069;-70
2023/10/04 07:05:19;;;;;;;10.95;4.40;;;11.10;99.90;;;;;;5048972;28;20064;-71
2023/10/04 07:07:49;;;;;;;9.35;4.22;;;11.20;99.90;;;;;;5048167;28;20163;-71
2023/10/04 07:10:15;;;;;;;10.20;4.70;;;11.30;99.90;;;;;;5048829;28;20059;-71
2023/10/04 07:12:45;;;;;;;12.57;4.40;;;11.30;99.90;;;;;;5049532;28;20708;-70
2023/10/04 07:15:12;;;;;;;10.75;4.85;;;11.40;99.90;;;;;;5048663;28;20111;-71
2023/10/04 07:17:39;;;;;;;9.63;4.18;;;11.40;99.90;;;;;;5049484;28;20033;-70
2023/10/04 07:20:07;;;;;;;14.23;4.53;;;11.50;99.90;;;;;;5049124;28;20037;-71
2023/10/04 07:22:36;;;;;;;14.07;4.80;;;11.60;99.90;;;;;;5049086;28;20068;-71
2023/10/04 07:25:02;;;;;;;13.35;4.88;;;11.70;99.90;;;;;;5049274;28;20478;-71
2023/10/04 07:27:27;;;;;;;8.35;4.25;;;11.70;99.90;;;;;;5048221;28;20029;-71
2023/10/04 07:29:54;;;;;;;13.30;4.30;;;11.80;99.90;;;;;;5047646;28;20114;-70
2023/10/04 07:32:23;;;;;;;8.95;4.30;;;11.90;99.90;;;;;;5048189;28;20100;-70
2023/10/04 07:34:48;;;;;;;10.48;4.35;;;11.90;99.90;;;;;;5048929;28;20546;-71
2023/10/04 07:37:14;;;;;;;11.70;4.30;;;12.00;99.90;;;;;;5048040;28;20049;-70
2023/10/04 07:39:39;;;;;;;9.88;4.43;;;12.10;99.90;;;;;;5047534;28;20075;-71
2023/10/04 07:42:05;;;;;;;9.40;4.45;;;12.20;99.90;;;;;;5048583;28;20029;-71
2023/10/04 07:44:31;;;;;;;9.40;4.30;;;12.20;99.90;;;;;;5048246;28;20033;-70
2023/10/04 07:47:00;;;;;;;10.23;4.85;;;12.20;99.90;;;;;;5048842;28;20112;-70
2023/10/04 07:49:28;;;;;;;10.65;4.50;;;12.30;99.90;;;;;;5048139;28;20110;-70
2023/10/04 07:51:55;;;;;;;13.18;4.55;;;12.40;99.90;;;;;;5046629;28;20372;-70
2023/10/04 07:54:21;;;;;;;13.50;4.20;;;12.30;99.90;;;;;;5047850;28;20073;-71
2023/10/04 07:56:48;;;;;;;11.63;4.88;;;12.30;99.90;;;;;;5049005;28;20028;-70
2023/10/04 07:59:15;;;;;;;13.55;4.60;;;12.50;99.90;;;;;;5047787;28;20025;-70
2023/10/04 08:01:40;;;;;;;13.75;4.70;;;12.50;99.90;;;;;;5048715;28;20029;-71
2023/10/04 08:04:07;;;;;;;7.93;3.75;;;12.60;99.90;;;;;;5048671;28;20055;-70
2023/10/04 08:06:35;;;;;;;13.05;4.15;;;12.60;99.90;;;;;;5047857;28;20061;-71
2023/10/04 08:09:04;;;;;;;15.52;4.05;;;12.70;99.90;;;;;;5048545;28;20083;-70
2023/10/04 08:11:33;;;;;;;10.00;4.22;;;12.80;99.90;;;;;;5047613;28;20284;-71
2023/10/04 08:13:59;;;;;;;10.63;3.75;;;12.80;99.90;;;;;;5035305;28;20029;-71
2023/10/04 08:16:25;;;;;;;13.55;4.22;;;13.00;99.90;;;;;;5029398;28;20128;-71
2023/10/04 08:18:50;;;;;;;6.82;3.42;;;13.10;99.90;;;;;;5048234;28;20078;-71
2023/10/04 08:21:16;;;;;;;10.60;3.95;;;13.20;99.90;;;;;;5047342;28;20047;-71
2023/10/04 08:23:42;;;;;;;13.00;3.55;;;13.20;99.90;;;;;;5048430;28;20032;-70
2023/10/04 08:26:14;;;;;;;12.15;3.30;;;13.30;99.90;;;;;;5048410;28;20028;-70
2023/10/04 08:28:41;;;;;;;11.45;3.88;;;13.20;99.90;;;;;;5048311;28;20021;-70
2023/10/04 08:31:09;;;;;;;11.00;3.80;;;13.30;99.90;;;;;;5048340;28;20064;-70
2023/10/04 08:33:34;;;;;;;10.45;3.72;;;13.40;99.90;;;;;;5047723;28;20031;-70
2023/10/04 08:36:08;;;;;;;9.02;4.13;;;13.40;99.90;;;;;;5046793;28;20036;-70
2023/10/04 08:38:34;;;;;;;8.00;2.90;;;13.30;99.90;;;;;;5047829;28;20057;-70
2023/10/04 08:41:01;;;;;;;8.32;3.10;;;13.50;99.90;;;;;;5048342;28;20434;-70
2023/10/04 08:43:29;;;;;;;11.13;3.22;;;13.30;99.90;;;;;;5046134;28;20029;-70
2023/10/04 08:45:56;;;;;;;12.18;3.10;;;13.40;99.90;;;;;;5049949;28;20038;-70
2023/10/04 08:48:25;;;;;;;8.27;3.20;;;13.50;99.90;;;;;;5051608;28;20086;-71
2023/10/04 08:51:07;;;;;;;8.68;2.63;;;13.50;99.90;;;;;;5052141;28;20750;-70
2023/10/04 08:53:58;;;;;;;10.65;2.35;;;13.70;99.90;;;;;;5049936;28;20055;-70
2023/10/04 08:56:29;;;;;;;8.00;2.58;;;13.90;99.90;;;;;;5050912;28;20021;-71
2023/10/04 08:58:59;;;;;;;8.18;2.63;;;14.00;99.90;;;;;;5051873;28;20040;-70
2023/10/04 09:01:25;;;;;;;9.47;2.30;;;14.20;99.90;;;;;;5051161;28;20029;-71
2023/10/04 09:03:53;;;;;;;7.03;2.22;;;14.20;99.90;;;;;;5050576;28;20029;-71
2023/10/04 09:06:18;;;;;;;6.18;1.77;;;14.30;99.90;;;;;;5051109;28;20041;-70
2023/10/04 09:08:44;;;;;;;8.27;2.10;;;14.30;99.90;;;;;;5051877;28;20476;-70
2023/10/04 09:11:11;;;;;;;4.65;2.15;;;14.40;99.90;;;;;;5050494;28;20033;-70
2023/10/04 09:13:47;;;;;;;10.52;2.25;;;14.50;99.90;;;;;;5051174;28;20477;-70
2023/10/04 09:16:17;;;;;;;7.30;2.30;;;14.50;99.90;;;;;;5051416;28;20545;-71
2023/10/04 09:18:43;;;;;;;8.68;2.42;;;14.40;99.90;;;;;;5051492;28;20039;-70
2023/10/04 09:21:16;;;;;;;6.55;2.17;;;14.60;99.90;;;;;;5051640;28;20044;-70
2023/10/04 09:23:43;;;;;;;6.10;2.33;;;14.40;99.90;;;;;;5051507;28;20055;-70
2023/10/04 09:26:16;;;;;;;7.05;1.83;;;14.50;99.90;;;;;;5051383;28;20091;-70
2023/10/04 09:28:42;;;;;;;7.85;2.40;;;14.60;99.90;;;;;;5051427;28;20029;-71
2023/10/04 09:31:09;;;;;;;6.07;2.63;;;14.90;99.90;;;;;;5049910;28;20028;-71
2023/10/04 09:33:36;;;;;;;12.80;2.17;;;15.20;99.90;;;;;;5050597;28;20100;-70
2023/10/04 09:36:01;;;;;;;8.00;2.15;;;15.30;99.90;;;;;;5051413;28;20033;-71
2023/10/04 09:38:29;;;;;;;9.55;2.15;;;15.50;99.90;;;;;;5048654;28;20408;-70
2023/10/04 09:40:56;;;;;;;7.78;1.80;;;15.80;99.90;;;;;;5051220;28;20025;-70
2023/10/04 09:43:39;;;;;;;8.65;1.73;;;15.80;99.90;;;;;;5050544;28;20021;-70
2023/10/04 09:46:09;;;;;;;7.57;1.73;;;15.40;99.90;;;;;;5050741;28;20033;-70
2023/10/04 09:48:37;;;;;;;6.50;2.22;;;15.20;99.90;;;;;;5050478;28;20328;-70
2023/10/04 09:51:07;;;;;;;5.32;1.40;;;15.20;99.90;;;;;;5049669;28;20452;-70
2023/10/04 09:53:38;;;;;;;6.80;1.70;;;15.20;99.90;;;;;;5050337;28;20128;-70
2023/10/04 09:56:03;;;;;;;6.28;1.63;;;15.30;99.90;;;;;;5051094;28;20021;-71
2023/10/04 09:58:31;;;;;;;6.20;1.45;;;15.40;99.90;;;;;;5050264;28;20021;-71
2023/10/04 10:01:05;;;;;;;7.95;1.75;;;15.20;99.90;;;;;;5050621;28;20075;-71
2023/10/04 10:03:39;;;;;;;10.77;1.92;;;15.30;99.90;;;;;;5048330;28;20025;-70
2023/10/04 10:06:09;;;;;;;7.30;1.50;;;15.40;99.90;;;;;;5031514;28;20032;-70
2023/10/04 10:08:39;;;;;;;9.07;1.73;;;15.20;99.90;;;;;;5029779;28;20060;-70
2023/10/04 10:11:06;;;;;;;3.92;1.42;;;15.30;99.90;;;;;;5030530;28;20148;-70
2023/10/04 10:13:33;;;;;;;9.15;1.73;;;15.50;99.90;;;;;;5030005;28;20037;-70
2023/10/04 10:15:59;;;;;;;6.53;1.80;;;15.60;99.90;;;;;;5030405;28;20033;-70
2023/10/04 10:18:25;;;;;;;8.88;1.33;;;15.90;99.90;;;;;;5029782;28;20072;-70
2023/10/04 10:20:50;;;;;;;4.60;1.40;;;15.80;99.90;;;;;;5030518;28;20041;-70
2023/10/04 10:23:16;;;;;;;4.63;1.23;;;15.80;99.90;;;;;;5044079;28;20033;-70
2023/10/04 10:26:18;;;;;;;4.97;1.42;;;15.90;99.90;;;;;;5049770;28;20116;-70
2023/10/04 10:28:47;;;;;;;5.72;1.30;;;15.80;99.90;;;;;;5050270;28;20029;-70
2023/10/04 10:31:22;;;;;;;7.60;1.50;;;16.00;99.90;;;;;;5050378;28;20491;-70
2023/10/04 10:33:49;;;;;;;4.90;1.05;;;16.10;99.90;;;;;;5050323;28;20028;-70
2023/10/04 10:36:22;;;;;;;6.85;1.45;;;16.30;99.90;;;;;;5050149;28;20025;-71
2023/10/04 10:38:49;;;;;;;5.38;1.30;;;16.60;99.90;;;;;;5050251;28;20048;-70
2023/10/04 10:41:34;;;;;;;3.00;1.05;;;16.60;99.90;;;;;;5050143;28;20061;-70
2023/10/04 10:44:19;;;;;;;6.32;1.30;;;16.90;99.90;;;;;;5050214;28;20036;-70
2023/10/04 10:47:12;;;;;;;5.30;1.27;;;16.60;99.90;;;;;;5049951;28;20025;-70
2023/10/04 10:49:40;;;;;;;8.85;1.77;;;16.30;99.90;;;;;;5047918;28;20112;-70
2023/10/04 10:52:28;;;;;;;3.75;1.05;;;16.50;99.90;;;;;;5049933;28;20449;-69
2023/10/04 10:54:56;;;;;;;4.82;1.23;;;16.70;99.90;;;;;;5049829;28;20024;-70
2023/10/04 10:57:24;;;;;;;4.60;1.20;;;16.90;99.90;;;;;;5048941;28;20029;-70
2023/10/04 10:59:53;;;;;;;4.82;1.17;;;16.80;99.90;;;;;;5049685;28;20036;-70
2023/10/04 11:02:19;;;;;;;5.63;1.42;;;16.90;99.90;;;;;;5049411;28;20036;-70
2023/10/04 11:04:45;;;;;;;5.38;1.08;;;16.90;99.90;;;;;;5049669;28;20091;-70
2023/10/04 11:07:11;;;;;;;3.83;1.20;;;17.00;99.90;;;;;;5049741;28;20021;-70
2023/10/04 11:09:39;;;;;;;4.80;1.50;;;17.20;99.90;;;;;;5048387;28;20045;-70
2023/10/04 11:12:09;;;;;;;8.52;1.40;;;17.50;99.90;;;;;;5049781;28;20032;-70
2023/10/04 11:14:38;;;;;;;4.70;1.52;;;17.80;99.90;;;;;;5048696;28;20095;-70
2023/10/04 11:17:04;;;;;;;10.68;1.70;;;18.00;99.90;;;;;;5049429;28;20448;-70
2023/10/04 11:19:32;;;;;;;4.35;1.45;;;17.90;99.90;;;;;;5030588;28;20090;-70
2023/10/04 11:21:59;;;;;;;7.25;1.60;;;17.60;99.90;;;;;;5049285;28;20029;-70
2023/10/04 11:24:26;;;;;;;7.32;1.73;;;17.80;99.90;;;;;;5048402;28;20056;-70
2023/10/04 11:26:56;;;;;;;10.32;1.33;;;17.90;99.90;;;;;;5049165;28;20109;-70
2023/10/04 11:29:26;;;;;;;4.97;1.38;;;17.90;99.90;;;;;;5048771;28;20071;-70
2023/10/04 11:31:52;;;;;;;4.88;1.30;;;18.10;99.90;;;;;;5049217;28;20120;-70
2023/10/04 11:34:18;;;;;;;9.10;1.52;;;17.90;99.90;;;;;;5049115;28;20025;-70
2023/10/04 11:36:44;;;;;;;3.25;1.30;;;18.00;99.90;;;;;;5047885;28;20053;-70
2023/10/04 11:39:12;;;;;;;6.50;1.30;;;18.00;99.90;;;;;;5049022;28;20036;-71
2023/10/04 11:41:39;;;;;;;5.10;1.30;;;17.90;99.90;;;;;;5048194;28;20067;-70
2023/10/04 11:44:06;;;;;;;5.47;1.10;;;17.90;99.90;;;;;;5048924;28;20025;-70
2023/10/04 11:46:51;;;;;;;8.48;1.30;;;18.10;99.90;;;;;;5048199;28;20025;-70
2023/10/04 11:49:17;;;;;;;7.95;1.45;;;18.30;99.90;;;;;;5048465;28;20732;-70
2023/10/04 11:51:43;;;;;;;7.30;1.33;;;18.50;99.90;;;;;;5048072;28;20028;-70
2023/10/04 11:54:09;;;;;;;11.45;1.15;;;18.50;99.90;;;;;;5046722;28;20067;-70
2023/10/04 11:56:41;;;;;;;5.68;1.27;;;18.80;99.90;;;;;;5048240;28;20032;-70
2023/10/04 11:59:08;;;;;;;5.30;1.10;;;19.40;99.90;;;;;;5048588;28;20044;-70
2023/10/04 12:01:47;;;;;;;4.38;1.42;;;19.80;99.90;;;;;;5047865;28;20477;-70
2023/10/04 12:04:14;;;;;;;8.68;1.25;;;19.60;99.90;;;;;;5048736;28;20024;-70
2023/10/04 12:06:41;;;;;;;6.93;1.20;;;19.40;99.90;;;;;;5047960;28;20545;-70
2023/10/04 12:09:08;;;;;;;4.38;1.15;;;19.60;99.90;;;;;;5048407;28;20075;-71
2023/10/04 12:11:38;;;;;;;7.60;1.40;;;19.90;99.90;;;;;;5044857;28;20040;-71
2023/10/04 12:14:05;;;;;;;5.65;1.23;;;19.60;99.90;;;;;;5048451;28;20032;-71
2023/10/04 12:16:37;;;;;;;6.57;1.27;;;19.50;99.90;;;;;;5047691;28;20120;-71
2023/10/04 12:19:03;;;;;;;2.88;0.98;;;19.60;99.80;;;;;;5048416;28;20029;-70
2023/10/04 12:21:28;;;;;;;3.60;1.10;;;19.90;99.90;;;;;;5046529;28;20470;-71
2023/10/04 12:23:54;;;;;;;3.15;0.95;;;20.30;99.90;;;;;;5046565;28;20032;-71
2023/10/04 12:26:20;;;;;;;3.47;1.20;;;20.60;99.60;;;;;;5048687;28;20071;-70
2023/10/04 12:28:47;;;;;;;5.28;1.20;;;20.90;99.90;;;;;;5047467;28;20029;-70
2023/10/04 12:31:13;;;;;;;3.75;1.05;;;20.70;98.50;;;;;;5047007;28;20473;-71
2023/10/04 12:33:39;;;;;;;3.00;1.00;;;20.30;98.50;;;;;;5047601;28;20025;-71
2023/10/04 12:36:05;;;;;;;4.22;1.08;;;20.30;99.70;;;;;;5048151;28;20075;-70
2023/10/04 12:38:31;;;;;;;4.90;1.08;;;20.20;97.30;;;;;;5047526;28;20576;-70
2023/10/04 12:40:56;;;;;;;4.30;0.80;;;19.80;97.00;;;;;;5047914;28;20097;-71
2023/10/04 12:43:24;;;;;;;2.95;1.10;;;19.70;97.40;;;;;;5048303;28;20445;-70
2023/10/04 12:45:53;;;;;;;5.43;1.38;;;19.90;96.90;;;;;;5047749;28;20025;-70
2023/10/04 12:48:19;;;;;;;5.05;1.38;;;19.30;96.30;;;;;;5048288;28;20029;-70
2023/10/04 12:50:48;;;;;;;5.07;1.20;;;19.10;97.60;;;;;;5047090;28;20109;-70
2023/10/04 12:53:17;;;;;;;3.88;1.25;;;18.80;97.40;;;;;;5048043;28;20029;-70